Time;durP1;ratioP1;P1;durP2;ratioP2;P2;SDS_P1;SDS_P2;PMS_P1;PMS_P2;Temp;Humidity;BMP_temperature;BMP_pressure;BME280_temperature;BME280_humidity;BME280_pressure;Samples;Min_cycle;Max_cycle;Signal;HPM_P1;HPM_P2
2022/03/13 00:04:51;;;;;;;70.47;27.77;;;;;;;-0.06;49.17;101608.19;3654139;79;98998;-79
2022/03/13 00:09:51;;;;;;;66.22;28.70;;;;;;;-0.07;49.22;101610.64;3638398;80;99331;-79
2022/03/13 00:14:55;;;;;;;63.80;27.80;;;;;;;-0.09;49.40;101614.14;3669506;78;99064;-79
2022/03/13 00:20:00;;;;;;;62.03;27.67;;;;;;;-0.12;49.74;101610.39;3646445;78;98877;-79
2022/03/13 00:25:08;;;;;;;63.17;26.23;;;;;;;-0.16;49.91;101610.14;3663077;78;98861;-79
2022/03/13 00:30:11;;;;;;;70.70;26.93;;;;;;;-0.22;50.08;101603.11;3711685;78;98802;-79
2022/03/13 00:35:13;;;;;;;73.33;29.33;;;;;;;-0.27;49.96;101609.36;3656801;79;99105;-79
2022/03/13 00:40:15;;;;;;;61.97;26.40;;;;;;;-0.28;50.02;101609.63;3665362;79;98540;-79
2022/03/13 00:45:17;;;;;;;65.17;26.50;;;;;;;-0.31;50.17;101606.93;3689856;78;99053;-79
2022/03/13 00:50:18;;;;;;;64.07;25.47;;;;;;;-0.31;50.09;101609.64;3669889;79;98671;-79
2022/03/13 00:55:20;;;;;;;58.47;24.90;;;;;;;-0.33;50.28;101606.94;3655247;79;98809;-80
2022/03/13 01:00:21;;;;;;;61.10;25.20;;;;;;;-0.35;50.47;101594.25;3636051;79;99111;-79
2022/03/13 01:05:25;;;;;;;53.53;24.53;;;;;;;-0.40;50.51;101591.56;3688709;78;99439;-79
2022/03/13 01:10:26;;;;;;;60.93;24.17;;;;;;;-0.42;50.92;101590.22;3660936;79;98952;-79
2022/03/13 01:15:30;;;;;;;60.05;24.23;;;;;;;-0.48;50.86;101585.91;3661146;79;99042;-79
2022/03/13 01:20:31;;;;;;;66.82;24.92;;;;;;;-0.53;51.04;101587.28;3628767;79;98649;-79
2022/03/13 01:25:32;;;;;;;58.17;25.80;;;;;;;-0.60;51.14;101575.39;3657686;79;99068;-79
2022/03/13 01:30:33;;;;;;;52.33;25.50;;;;;;;-0.65;51.28;101584.08;3677665;78;98972;-79
2022/03/13 01:35:34;;;;;;;50.70;23.60;;;;;;;-0.69;51.81;101578.42;3593549;78;99233;-79
2022/03/13 01:40:35;;;;;;;59.77;25.87;;;;;;;-0.74;51.72;101577.60;3629181;79;99306;-80
2022/03/13 01:45:36;;;;;;;59.73;25.27;;;;;;;-0.83;51.72;101568.45;3677257;77;99104;-78
2022/03/13 01:50:37;;;;;;;57.57;24.00;;;;;;;-0.87;51.51;101567.38;3671736;78;99066;-79
2022/03/13 01:55:38;;;;;;;51.63;23.47;;;;;;;-0.91;51.54;101566.30;3683264;78;99218;-78
2022/03/13 02:00:39;;;;;;;62.83;25.17;;;;;;;-0.92;51.30;101570.09;3630606;78;99039;-78
2022/03/13 02:05:41;;;;;;;53.10;24.60;;;;;;;-0.96;51.60;101562.25;3680042;77;99090;-79
2022/03/13 02:10:42;;;;;;;63.43;25.87;;;;;;;-0.99;51.85;101566.30;3666838;79;99103;-79
2022/03/13 02:15:43;;;;;;;51.20;26.43;;;;;;;-1.01;51.78;101567.13;3684481;78;99215;-79
2022/03/13 02:20:45;;;;;;;62.60;24.80;;;;;;;-1.03;52.21;101560.38;3652788;79;99506;-78
2022/03/13 02:25:59;;;;;;;57.30;26.27;;;;;;;-1.01;52.05;101565.78;3697494;78;26163;-78
2022/03/13 02:31:04;;;;;;;61.45;25.82;;;;;;;-1.03;52.37;101566.61;3670339;79;99389;-78
2022/03/13 02:36:12;;;;;;;61.57;26.93;;;;;;;-1.06;52.30;101575.77;3668158;78;98918;-78
2022/03/13 02:41:13;;;;;;;62.83;27.73;;;;;;;-1.08;52.45;101572.55;3644411;78;99161;-78
2022/03/13 02:46:23;;;;;;;63.63;27.43;;;;;;;-1.11;52.62;101569.84;3644470;79;99166;-78
2022/03/13 02:51:24;;;;;;;58.10;25.37;;;;;;;-1.14;52.78;101556.91;3648682;79;99202;-78
2022/03/13 02:56:26;;;;;;;64.30;25.20;;;;;;;-1.17;52.78;101557.95;3657923;79;26530;-78
2022/03/13 03:01:26;;;;;;;66.47;27.40;;;;;;;-1.20;52.98;101553.12;3640716;79;99202;-80
2022/03/13 03:06:30;;;;;;;61.03;26.33;;;;;;;-1.24;52.93;101556.08;3654677;79;99046;-80
2022/03/13 03:11:35;;;;;;;58.80;25.97;;;;;;;-1.26;53.33;101562.31;3655405;78;99226;-80
2022/03/13 03:16:36;;;;;;;59.60;26.53;;;;;;;-1.29;53.23;101569.06;3630078;79;99582;-79
2022/03/13 03:21:38;;;;;;;58.60;25.17;;;;;;;-1.33;53.28;101564.45;3678890;79;99501;-78
2022/03/13 03:26:40;;;;;;;59.23;25.87;;;;;;;-1.36;53.33;101569.06;3645422;79;99171;-78
2022/03/13 03:31:47;;;;;;;61.80;26.80;;;;;;;-1.39;53.45;101573.64;3615222;79;98896;-78
2022/03/13 03:36:56;;;;;;;58.33;25.60;;;;;;;-1.43;53.58;101569.88;3586674;80;99002;-78
2022/03/13 03:41:58;;;;;;;62.00;25.43;;;;;;;-1.47;53.29;101564.73;3572144;80;99212;-78
2022/03/13 03:46:59;;;;;;;60.10;26.27;;;;;;;-1.52;53.59;101564.73;3603147;80;99187;-78
2022/03/13 03:52:01;;;;;;;59.93;25.23;;;;;;;-1.57;53.93;101561.50;3598202;79;99198;-77
2022/03/13 03:57:02;;;;;;;64.35;26.50;;;;;;;-1.60;54.12;101562.03;3593032;80;99138;-78
2022/03/13 04:02:03;;;;;;;61.30;26.48;;;;;;;-1.62;54.07;101567.42;3608884;80;30620;-78
2022/03/13 04:07:05;;;;;;;58.00;24.10;;;;;;;-1.66;54.11;101559.59;3571692;80;99881;-80
2022/03/13 04:12:08;;;;;;;53.90;23.17;;;;;;;-1.71;54.42;101559.05;3601548;81;99076;-77
2022/03/13 04:17:09;;;;;;;55.67;25.12;;;;;;;-1.73;54.00;101562.57;3572910;80;99172;-78
2022/03/13 04:22:10;;;;;;;60.30;25.33;;;;;;;-1.74;54.04;101568.23;3605456;80;99228;-78
2022/03/13 04:27:10;;;;;;;57.90;25.13;;;;;;;-1.77;54.16;101566.88;3598243;78;99168;-79
2022/03/13 04:32:12;;;;;;;60.03;25.80;;;;;;;-1.78;54.36;101572.53;3641625;78;26450;-78
2022/03/13 04:37:13;;;;;;;52.35;23.90;;;;;;;-1.81;54.55;101563.64;3618863;79;99388;-78
2022/03/13 04:42:14;;;;;;;55.07;24.40;;;;;;;-1.82;54.48;101571.44;3660647;79;98957;-78
2022/03/13 04:47:15;;;;;;;56.58;23.90;;;;;;;-1.86;54.30;101571.72;3686550;79;99797;-78
2022/03/13 04:52:17;;;;;;;56.63;23.10;;;;;;;-1.89;54.69;101565.50;3660884;79;99481;-78
2022/03/13 04:57:19;;;;;;;54.23;23.23;;;;;;;-1.91;55.19;101571.71;3660589;79;99080;-78
2022/03/13 05:02:20;;;;;;;63.87;24.13;;;;;;;-1.93;54.82;101568.45;3659807;78;25962;-78
2022/03/13 05:07:21;;;;;;;58.77;24.20;;;;;;;-1.93;55.06;101582.77;3646188;78;99551;-79
2022/03/13 05:12:25;;;;;;;54.17;23.17;;;;;;;-1.94;55.12;101581.14;3652134;79;99061;-79
2022/03/13 05:17:25;;;;;;;57.57;23.60;;;;;;;-1.93;54.89;101586.80;3647997;79;99230;-79
2022/03/13 05:22:26;;;;;;;55.83;23.47;;;;;;;-1.92;54.87;101581.68;3661330;78;99471;-78
2022/03/13 05:27:27;;;;;;;53.60;24.53;;;;;;;-1.93;54.59;101601.64;3609890;79;99450;-78
2022/03/13 05:32:28;;;;;;;53.50;23.50;;;;;;;-1.93;54.93;101591.38;3593027;81;25880;-79
2022/03/13 05:37:29;;;;;;;51.83;23.13;;;;;;;-1.92;55.08;101599.77;3591596;79;98984;-79
2022/03/13 05:42:30;;;;;;;51.00;22.87;;;;;;;-1.89;55.00;101601.92;3576895;80;99495;-78
2022/03/13 05:47:31;;;;;;;57.33;23.87;;;;;;;-1.89;55.45;101608.14;3560707;81;99439;-79
2022/03/13 05:52:32;;;;;;;58.60;22.77;;;;;;;-1.89;55.34;101608.14;3579263;81;99193;-79
2022/03/13 05:57:34;;;;;;;54.95;24.60;;;;;;;-1.85;55.38;101615.16;3586634;80;99307;-79
2022/03/13 06:02:36;;;;;;;59.47;25.87;;;;;;;-1.83;55.50;101612.98;3586736;80;26304;-78
2022/03/13 06:07:39;;;;;;;63.33;26.53;;;;;;;-1.78;55.66;101612.48;3576914;80;98810;-79
2022/03/13 06:12:40;;;;;;;55.13;23.23;;;;;;;-1.70;55.49;101609.24;3593218;81;99031;-79
2022/03/13 06:17:44;;;;;;;62.00;24.03;;;;;;;-1.65;55.57;101609.25;3598992;80;99871;-79
2022/03/13 06:22:48;;;;;;;53.37;22.67;;;;;;;-1.53;55.13;101611.16;3582911;80;99583;-79
2022/03/13 06:27:49;;;;;;;54.13;24.50;;;;;;;-1.39;54.91;101614.13;3599995;78;99518;-79
2022/03/13 06:32:52;;;;;;;51.17;22.53;;;;;;;-1.23;54.36;101623.34;3669708;79;99192;-79
2022/03/13 06:37:54;;;;;;;51.33;22.90;;;;;;;-1.06;53.91;101619.82;3681030;79;98838;-79
2022/03/13 06:42:58;;;;;;;54.73;23.97;;;;;;;-0.89;54.05;101628.45;3679695;79;99470;-80
2022/03/13 06:47:59;;;;;;;45.90;22.63;;;;;;;-0.70;53.58;101630.05;3681576;78;99206;-79
2022/03/13 06:53:00;;;;;;;49.40;21.13;;;;;;;-0.52;53.27;101635.69;3686462;79;99120;-79
2022/03/13 06:58:01;;;;;;;49.07;22.43;;;;;;;-0.33;52.93;101637.25;3662650;79;99015;-80
2022/03/13 07:03:02;;;;;;;59.27;22.40;;;;;;;-0.13;52.60;101635.84;3653259;77;99461;-80
2022/03/13 07:08:04;;;;;;;49.80;22.67;;;;;;;0.04;51.85;101635.20;3651517;79;99065;-80
2022/03/13 07:13:05;;;;;;;49.50;21.23;;;;;;;0.26;51.70;101632.09;3656780;77;98610;-80
2022/03/13 07:18:06;;;;;;;46.70;19.37;;;;;;;0.52;50.79;101630.86;3648357;79;99102;-81
2022/03/13 07:23:07;;;;;;;41.73;20.27;;;;;;;0.79;50.13;101629.31;3685076;79;98887;-82
2022/03/13 07:28:09;;;;;;;47.30;20.20;;;;;;;0.93;49.59;101629.48;3647818;78;98809;-81
2022/03/13 07:33:10;;;;;;;39.60;19.40;;;;;;;1.24;49.02;101627.55;3599809;80;98804;-80
2022/03/13 07:38:11;;;;;;;40.20;18.23;;;;;;;1.50;48.55;101625.39;3579920;80;99109;-80
2022/03/13 07:43:13;;;;;;;47.37;20.27;;;;;;;1.68;48.47;101621.91;3588626;79;99053;-80
2022/03/13 07:48:14;;;;;;;40.10;18.87;;;;;;;1.93;47.89;101627.88;3591366;79;100451;-81
2022/03/13 07:53:15;;;;;;;41.40;17.87;;;;;;;2.21;46.91;101624.78;3595674;79;99005;-80
2022/03/13 07:58:17;;;;;;;39.87;18.20;;;;;;;2.48;46.14;101627.12;3572745;80;98816;-78
2022/03/13 08:03:19;;;;;;;39.90;18.17;;;;;;;2.74;45.94;101622.09;3580847;80;99014;-78
2022/03/13 08:08:20;;;;;;;33.67;16.60;;;;;;;2.99;45.11;101621.13;3586577;79;98517;-78
2022/03/13 08:13:22;;;;;;;31.63;14.33;;;;;;;3.22;44.90;101619.38;3588702;81;98795;-78
2022/03/13 08:18:23;;;;;;;31.33;14.97;;;;;;;3.50;44.17;101624.55;3577961;81;98771;-77
2022/03/13 08:23:24;;;;;;;33.03;15.80;;;;;;;3.70;43.84;101622.80;3586885;80;98784;-78
2022/03/13 08:28:25;;;;;;;32.53;15.80;;;;;;;3.99;43.12;101621.92;3595314;79;99020;-79
2022/03/13 08:33:26;;;;;;;32.23;15.70;;;;;;;4.38;42.53;101622.19;3660517;78;98872;-78
2022/03/13 08:38:28;;;;;;;30.13;14.20;;;;;;;4.71;42.18;101626.87;3635147;79;98865;-80
2022/03/13 08:43:29;;;;;;;24.97;13.63;;;;;;;5.04;41.92;101618.14;3645475;79;98695;-80
2022/03/13 08:48:30;;;;;;;28.20;14.83;;;;;;;5.39;40.62;101622.67;3634691;79;98718;-78
2022/03/13 08:53:31;;;;;;;29.70;13.63;;;;;;;5.74;40.91;101619.53;3670189;79;98862;-79
2022/03/13 08:58:32;;;;;;;27.17;13.10;;;;;;;6.13;39.85;101616.23;3647659;79;98860;-80
2022/03/13 09:03:34;;;;;;;31.10;14.33;;;;;;;6.56;40.10;101621.20;3646327;78;99302;-80
2022/03/13 09:08:35;;;;;;;30.23;14.77;;;;;;;7.01;38.32;101625.75;3632628;79;98452;-80
2022/03/13 09:13:36;;;;;;;31.33;15.90;;;;;;;7.63;39.12;101615.36;3644446;79;98837;-75
2022/03/13 09:18:37;;;;;;;29.27;15.10;;;;;;;8.50;38.56;101615.38;3642303;79;99083;-77
2022/03/13 09:23:38;;;;;;;29.40;15.47;;;;;;;9.21;38.25;101613.30;3682201;79;98747;-79
2022/03/13 09:28:39;;;;;;;31.77;15.43;;;;;;;9.99;36.59;101612.02;3610674;79;99390;-79
2022/03/13 09:33:40;;;;;;;28.23;15.43;;;;;;;10.24;34.04;101613.06;3678595;79;98958;-78
2022/03/13 09:38:41;;;;;;;31.60;17.12;;;;;;;10.92;35.44;101612.54;3670806;78;99122;-79
2022/03/13 09:43:42;;;;;;;28.52;16.27;;;;;;;11.53;34.73;101604.98;3679764;79;98797;-79
2022/03/13 09:48:44;;;;;;;29.40;16.20;;;;;;;12.05;33.72;101603.34;3628593;79;99626;-80
2022/03/13 09:53:46;;;;;;;30.70;17.83;;;;;;;12.55;33.12;101603.30;3636531;79;99133;-79
2022/03/13 09:58:47;;;;;;;29.90;16.85;;;;;;;13.04;31.99;101601.00;3648403;78;99372;-79
2022/03/13 10:03:48;;;;;;;30.47;17.73;;;;;;;13.30;31.05;101608.03;3633104;79;99617;-79
2022/03/13 10:08:49;;;;;;;31.40;16.30;;;;;;;13.62;31.67;101598.95;3633038;79;99701;-80
2022/03/13 10:13:50;;;;;;;33.63;16.07;;;;;;;13.92;30.62;101590.95;3661803;78;33242;-80
2022/03/13 10:18:51;;;;;;;29.83;15.87;;;;;;;14.02;29.07;101600.59;3646424;79;98914;-79
2022/03/13 10:23:52;;;;;;;28.13;15.87;;;;;;;13.91;29.35;101597.64;3644302;79;99226;-80
2022/03/13 10:28:53;;;;;;;27.70;17.27;;;;;;;14.12;29.80;101594.42;3641177;79;99144;-79
2022/03/13 10:33:58;;;;;;;26.33;16.23;;;;;;;14.55;29.64;101591.12;3640095;77;99606;-79
2022/03/13 10:39:02;;;;;;;26.82;15.03;;;;;;;14.88;29.13;101596.09;3654830;79;99674;-79
2022/03/13 10:44:05;;;;;;;31.30;17.05;;;;;;;15.03;28.68;101590.93;3654924;78;26594;-79
2022/03/13 10:49:09;;;;;;;28.92;15.90;;;;;;;15.47;29.32;101589.05;3635327;79;99418;-80
2022/03/13 10:54:32;;;;;;;26.55;16.35;;;;;;;15.50;28.09;101595.23;3670607;78;99395;-80
2022/03/13 10:59:34;;;;;;;27.60;15.83;;;;;;;15.56;28.18;101599.26;3668058;78;99726;-80
2022/03/13 11:04:35;;;;;;;27.42;14.85;;;;;;;15.21;27.11;101603.01;3648057;79;99183;-80
2022/03/13 11:09:36;;;;;;;25.73;15.73;;;;;;;14.51;26.39;101589.67;3674208;78;99616;-80
2022/03/13 11:14:37;;;;;;;24.30;14.80;;;;;;;14.18;26.69;101593.71;3632392;78;33181;-78
2022/03/13 11:19:41;;;;;;;22.70;12.57;;;;;;;14.24;26.97;101587.31;3634974;79;99248;-80
2022/03/13 11:24:43;;;;;;;25.02;13.00;;;;;;;14.36;26.31;101583.74;3662979;79;98575;-81
2022/03/13 11:29:48;;;;;;;18.52;10.28;;;;;;;14.33;25.90;101585.09;3656456;79;99588;-81
2022/03/13 11:35:15;;;;;;;18.27;9.68;;;;;;;14.40;24.35;101583.79;3684200;78;99581;-81
2022/03/13 11:40:21;;;;;;;20.88;10.60;;;;;;;14.02;24.57;101576.45;3676533;78;99368;-80
2022/03/13 11:45:35;;;;;;;22.00;10.23;;;;;;;14.24;25.31;101568.74;3677337;79;99514;-81
2022/03/13 11:51:04;;;;;;;18.85;10.78;;;;;;;14.09;23.65;101571.05;3660778;79;98714;-79
2022/03/13 11:56:10;;;;;;;19.75;10.60;;;;;;;13.94;23.50;101569.23;3653462;79;26188;-79
2022/03/13 12:01:18;;;;;;;22.97;12.47;;;;;;;13.72;24.25;101562.34;3675686;79;99008;-80
2022/03/13 12:06:48;;;;;;;23.35;12.53;;;;;;;13.94;25.02;101558.16;3666514;78;99658;-81
2022/03/13 12:12:04;;;;;;;24.25;13.88;;;;;;;13.62;24.37;101562.98;3642562;79;99210;-81
2022/03/13 12:17:08;;;;;;;27.93;15.30;;;;;;;13.63;24.97;101559.05;3659097;77;99450;-80
2022/03/13 12:22:09;;;;;;;28.85;14.83;;;;;;;13.54;25.54;101555.72;3669390;79;99191;-79
2022/03/13 12:27:10;;;;;;;25.33;14.37;;;;;;;13.47;25.83;101547.31;3658922;78;99296;-79
2022/03/13 12:32:12;;;;;;;25.17;14.63;;;;;;;13.44;26.61;101536.41;3663308;79;99193;-80
2022/03/13 12:37:13;;;;;;;24.77;15.58;;;;;;;13.24;26.18;101532.09;3657016;79;99485;-80
2022/03/13 12:42:22;;;;;;;28.10;15.90;;;;;;;13.14;27.94;101529.14;3675292;78;99633;-81
2022/03/13 12:47:28;;;;;;;29.43;17.13;;;;;;;13.05;27.10;101518.91;3616997;78;99582;-80
2022/03/13 12:52:29;;;;;;;34.03;15.25;;;;;;;13.25;26.81;101525.39;3641220;79;99234;-77
2022/03/13 12:57:30;;;;;;;26.20;14.67;;;;;;;13.06;24.96;101527.41;3674205;78;100376;-79
2022/03/13 13:02:36;;;;;;;25.05;14.07;;;;;;;12.91;26.36;101522.77;3648844;79;33271;-79
2022/03/13 13:07:39;;;;;;;29.27;14.57;;;;;;;12.94;27.50;101520.64;3676962;79;99451;-82
2022/03/13 13:12:42;;;;;;;27.17;13.65;;;;;;;12.82;25.08;101528.50;3665772;79;99594;-80
2022/03/13 13:17:48;;;;;;;22.95;12.70;;;;;;;12.58;25.20;101516.95;3647854;79;99614;-81
2022/03/13 13:23:12;;;;;;;23.67;12.50;;;;;;;12.39;24.91;101508.12;3673282;79;99085;-80
2022/03/13 13:28:13;;;;;;;22.30;11.83;;;;;;;12.34;25.21;101508.97;3645209;79;99220;-80
2022/03/13 13:33:16;;;;;;;22.23;11.90;;;;;;;12.32;26.13;101506.56;3640404;79;99518;-79
2022/03/13 13:38:22;;;;;;;24.75;12.23;;;;;;;12.33;25.84;101506.78;3622393;79;98824;-80
2022/03/13 13:43:33;;;;;;;24.12;10.98;;;;;;;12.30;25.87;101514.42;3657406;79;99077;-79
2022/03/13 13:48:49;;;;;;;25.40;12.03;;;;;;;12.35;26.82;101513.33;3654112;79;99025;-80
2022/03/13 13:54:23;;;;;;;21.17;11.33;;;;;;;12.24;25.35;101507.59;3669205;79;99178;-80
2022/03/13 13:59:29;;;;;;;21.20;9.85;;;;;;;12.26;26.77;101505.26;3676308;76;99165;-79
2022/03/13 14:04:36;;;;;;;20.08;9.15;;;;;;;12.05;24.26;101508.15;3635373;79;99436;-81
2022/03/13 14:09:38;;;;;;;20.92;9.95;;;;;;;11.85;23.49;101500.98;3666642;78;99469;-80
2022/03/13 14:14:39;;;;;;;20.57;9.75;;;;;;;11.75;24.54;101506.48;3689301;79;26403;-81
2022/03/13 14:19:40;;;;;;;24.43;11.73;;;;;;;11.79;23.21;101505.19;3682208;79;99117;-78
2022/03/13 14:24:41;;;;;;;22.22;9.78;;;;;;;11.69;24.77;101496.89;3647641;79;98984;-79
2022/03/13 14:29:42;;;;;;;21.03;9.47;;;;;;;11.65;24.27;101508.41;3674165;79;99400;-79
2022/03/13 14:34:43;;;;;;;20.10;8.73;;;;;;;11.61;24.70;101502.59;3631800;79;99006;-81
2022/03/13 14:39:44;;;;;;;19.20;9.63;;;;;;;11.59;24.05;101500.19;3612440;78;99339;-81
2022/03/13 14:44:45;;;;;;;20.50;9.33;;;;;;;11.50;24.17;101507.02;3646018;78;33232;-78
2022/03/13 14:49:46;;;;;;;18.00;8.83;;;;;;;11.46;25.10;101501.99;3628702;78;99267;-80
2022/03/13 14:54:47;;;;;;;19.80;8.60;;;;;;;11.35;24.20;101507.23;3675411;78;98900;-81
2022/03/13 14:59:48;;;;;;;16.93;9.13;;;;;;;11.24;24.19;101504.78;3661319;79;99125;-79
2022/03/13 15:04:48;;;;;;;18.70;8.67;;;;;;;11.14;24.46;101508.66;3642169;79;99014;-79
2022/03/13 15:09:50;;;;;;;22.03;10.27;;;;;;;11.06;25.19;101492.52;3663904;78;99361;-78
2022/03/13 15:14:51;;;;;;;23.35;9.48;;;;;;;10.98;24.51;101494.06;3672495;79;33703;-79
2022/03/13 15:19:52;;;;;;;19.83;9.30;;;;;;;10.89;25.12;101494.80;3655869;78;99249;-79
2022/03/13 15:24:53;;;;;;;22.77;8.90;;;;;;;10.83;25.95;101496.20;3679230;76;98848;-80
2022/03/13 15:29:54;;;;;;;17.07;8.57;;;;;;;10.76;24.60;101505.09;3681007;78;98859;-77
2022/03/13 15:34:55;;;;;;;16.90;9.23;;;;;;;10.69;24.99;101501.34;3661467;78;99053;-80
2022/03/13 15:39:57;;;;;;;16.07;8.30;;;;;;;10.60;24.58;101500.12;3651732;79;98953;-79
2022/03/13 15:44:57;;;;;;;17.77;8.03;;;;;;;10.53;23.87;101504.63;3666972;78;31575;-80
2022/03/13 15:49:59;;;;;;;16.67;7.83;;;;;;;10.44;24.57;101506.72;3643070;79;98796;-80
2022/03/13 15:55:00;;;;;;;17.67;8.70;;;;;;;10.34;24.61;101501.70;3664036;78;99308;-79
2022/03/13 16:00:01;;;;;;;17.67;8.53;;;;;;;10.29;24.87;101502.77;3639086;79;98998;-79
2022/03/13 16:05:02;;;;;;;16.80;9.00;;;;;;;10.18;25.25;101500.84;3645761;79;99088;-81
2022/03/13 16:10:04;;;;;;;20.85;10.13;;;;;;;10.09;24.74;101494.69;3623183;79;99659;-78
2022/03/13 16:15:12;;;;;;;20.17;10.83;;;;;;;9.98;25.70;101501.20;3637406;79;32065;-80
2022/03/13 16:20:12;;;;;;;27.47;12.43;;;;;;;9.88;25.45;101507.17;3628934;79;99494;-78
2022/03/13 16:25:14;;;;;;;21.48;11.40;;;;;;;9.78;25.41;101511.79;3638594;79;98722;-79
2022/03/13 16:30:15;;;;;;;23.80;13.00;;;;;;;9.66;26.26;101507.65;3605052;78;98777;-77
2022/03/13 16:35:17;;;;;;;27.17;12.05;;;;;;;9.49;26.23;101508.48;3649027;78;98837;-78
2022/03/13 16:40:18;;;;;;;23.10;11.78;;;;;;;9.37;26.53;101514.76;3665765;78;98815;-78
2022/03/13 16:45:21;;;;;;;23.92;13.13;;;;;;;9.21;26.83;101509.70;3694261;78;98780;-77
2022/03/13 16:50:22;;;;;;;27.65;14.70;;;;;;;9.05;27.16;101518.96;3671140;78;98471;-78
2022/03/13 16:55:25;;;;;;;24.67;13.23;;;;;;;8.86;27.48;101514.00;3651543;78;98673;-80
2022/03/13 17:00:25;;;;;;;28.67;14.33;;;;;;;8.69;27.65;101525.15;3672475;78;98856;-80
2022/03/13 17:05:27;;;;;;;30.07;14.70;;;;;;;8.54;27.93;101525.77;3646142;77;98915;-79
2022/03/13 17:10:28;;;;;;;27.50;14.70;;;;;;;8.39;28.27;101527.75;3613847;80;99268;-79
2022/03/13 17:15:29;;;;;;;28.67;14.83;;;;;;;8.24;28.35;101537.95;3670303;78;98915;-79
2022/03/13 17:20:31;;;;;;;32.60;18.07;;;;;;;8.07;28.82;101537.27;3630540;79;98652;-79
2022/03/13 17:25:33;;;;;;;29.80;15.10;;;;;;;7.88;29.45;101533.59;3642921;79;98739;-79
2022/03/13 17:30:34;;;;;;;39.60;18.93;;;;;;;7.68;29.53;101535.72;3637295;79;98761;-78
2022/03/13 17:35:35;;;;;;;33.43;15.20;;;;;;;7.55;29.85;101534.02;3652366;79;98775;-78
2022/03/13 17:40:38;;;;;;;28.73;15.20;;;;;;;7.41;30.32;101532.65;3658532;78;98325;-78
2022/03/13 17:45:39;;;;;;;31.45;14.95;;;;;;;7.27;30.58;101541.63;3635790;79;98870;-80
2022/03/13 17:50:41;;;;;;;30.80;16.43;;;;;;;7.15;30.96;101544.25;3674115;79;98724;-79
2022/03/13 17:55:42;;;;;;;31.47;16.03;;;;;;;7.03;31.07;101546.29;3676746;78;99121;-77
2022/03/13 18:00:45;;;;;;;37.03;17.40;;;;;;;6.94;31.36;101548.27;3664854;78;99020;-78
2022/03/13 18:05:48;;;;;;;51.97;18.87;;;;;;;6.79;31.64;101546.03;3646581;78;98848;-79
2022/03/13 18:10:50;;;;;;;35.55;16.23;;;;;;;6.70;31.80;101554.80;3650625;79;98756;-79
2022/03/13 18:15:51;;;;;;;33.33;17.53;;;;;;;6.61;32.20;101555.36;3665960;79;98672;-79
2022/03/13 18:20:54;;;;;;;34.03;16.97;;;;;;;6.53;32.42;101560.30;3656929;79;98684;-79
2022/03/13 18:25:55;;;;;;;30.75;16.35;;;;;;;6.45;32.71;101565.22;3682421;79;98676;-79
2022/03/13 18:30:58;;;;;;;32.77;18.27;;;;;;;6.39;33.13;101565.11;3663193;78;99055;-80
2022/03/13 18:35:59;;;;;;;33.25;18.10;;;;;;;6.31;33.38;101566.47;3625825;79;98987;-79
2022/03/13 18:41:02;;;;;;;34.90;18.77;;;;;;;6.24;33.76;101566.16;3595938;80;98826;-80
2022/03/13 18:46:04;;;;;;;35.20;18.80;;;;;;;6.16;34.12;101570.48;3578017;80;98846;-79
2022/03/13 18:51:05;;;;;;;40.12;21.87;;;;;;;6.10;35.04;101576.41;3555909;82;98772;-77
2022/03/13 18:56:06;;;;;;;39.57;21.30;;;;;;;6.02;35.08;101569.84;3609378;80;98518;-80
2022/03/13 19:01:07;;;;;;;44.43;22.33;;;;;;;5.98;35.43;101581.16;3614551;80;99229;-79
2022/03/13 19:06:09;;;;;;;40.17;20.93;;;;;;;5.95;35.93;101586.45;3605773;80;98929;-79
2022/03/13 19:11:11;;;;;;;39.70;20.33;;;;;;;5.88;36.18;101578.71;3600442;80;98757;-79
2022/03/13 19:16:13;;;;;;;35.83;19.12;;;;;;;5.82;36.62;101579.17;3609615;80;99246;-79
2022/03/13 19:21:14;;;;;;;40.50;20.77;;;;;;;5.80;36.88;101578.14;3604449;79;98852;-80
2022/03/13 19:26:14;;;;;;;39.00;20.63;;;;;;;5.73;37.39;101579.11;3612026;80;32228;-80
2022/03/13 19:31:15;;;;;;;41.63;20.07;;;;;;;5.70;37.54;101573.48;3604637;80;98801;-78
2022/03/13 19:36:17;;;;;;;47.07;23.23;;;;;;;5.63;38.19;101577.24;3637581;78;98765;-78
2022/03/13 19:41:24;;;;;;;48.33;22.40;;;;;;;5.58;38.70;101576.84;3638331;77;98915;-78
2022/03/13 19:46:24;;;;;;;49.73;21.07;;;;;;;5.51;38.76;101577.05;3635293;78;98892;-80
2022/03/13 19:51:25;;;;;;;44.00;22.00;;;;;;;5.43;39.05;101574.52;3610276;79;99209;-79
2022/03/13 19:56:26;;;;;;;44.17;21.57;;;;;;;5.35;39.65;101572.54;3640491;79;32178;-77
2022/03/13 20:01:27;;;;;;;35.80;19.63;;;;;;;5.26;40.23;101581.81;3636426;77;98601;-81
2022/03/13 20:06:29;;;;;;;38.53;22.27;;;;;;;5.21;40.30;101572.39;3640901;78;122452;-79
2022/03/13 20:11:30;;;;;;;45.10;22.77;;;;;;;5.20;41.02;101578.43;3641004;79;98980;-78
2022/03/13 20:16:31;;;;;;;39.30;21.47;;;;;;;5.11;41.28;101576.20;3640083;78;99178;-79
2022/03/13 20:21:32;;;;;;;44.83;22.73;;;;;;;5.06;41.93;101576.88;3635040;79;98779;-80
2022/03/13 20:26:33;;;;;;;47.23;23.17;;;;;;;5.01;42.18;101578.37;3636039;77;98803;-78
2022/03/13 20:31:35;;;;;;;48.60;25.70;;;;;;;4.98;42.68;101574.92;3652258;78;98590;-80
2022/03/13 20:36:40;;;;;;;43.65;21.42;;;;;;;4.94;42.86;101583.47;3643439;78;98644;-79
2022/03/13 20:41:42;;;;;;;46.90;23.73;;;;;;;4.90;43.00;101585.20;3654675;78;98890;-79
2022/03/13 20:46:44;;;;;;;46.17;25.50;;;;;;;4.83;43.72;101589.75;3622941;79;107934;-80
2022/03/13 20:51:50;;;;;;;49.30;24.85;;;;;;;4.76;43.94;101598.11;3668041;78;99028;-80
2022/03/13 20:56:52;;;;;;;54.40;28.10;;;;;;;4.68;44.46;101594.75;3674471;78;98991;-79
2022/03/13 21:01:53;;;;;;;59.10;31.00;;;;;;;4.61;44.67;101586.20;3673213;78;98690;-79
2022/03/13 21:06:54;;;;;;;56.33;27.93;;;;;;;4.56;45.19;101595.31;3622850;78;99024;-76
2022/03/13 21:11:56;;;;;;;58.40;32.97;;;;;;;4.49;45.36;101593.59;3645896;78;98776;-77
2022/03/13 21:16:58;;;;;;;62.65;30.77;;;;;;;4.40;46.02;101593.23;3659682;78;98989;-78
2022/03/13 21:22:00;;;;;;;56.23;28.67;;;;;;;4.34;46.26;101589.02;3703754;78;98810;-79
2022/03/13 21:27:01;;;;;;;55.48;28.95;;;;;;;4.25;46.53;101586.80;3670312;78;98521;-78
2022/03/13 21:32:03;;;;;;;59.40;29.67;;;;;;;4.21;46.67;101585.78;3672242;78;98635;-78
2022/03/13 21:37:04;;;;;;;65.97;33.50;;;;;;;4.16;46.98;101587.26;3642396;78;99077;-78
2022/03/13 21:42:06;;;;;;;66.10;35.63;;;;;;;4.12;47.20;101579.44;3646217;77;99312;-77
2022/03/13 21:47:07;;;;;;;55.60;30.07;;;;;;;4.09;47.36;101577.34;3654425;78;98943;-76
2022/03/13 21:52:08;;;;;;;50.67;27.33;;;;;;;4.03;47.46;101580.72;3632746;79;98787;-79
2022/03/13 21:57:10;;;;;;;61.43;30.43;;;;;;;3.98;47.72;101575.38;3640250;77;98605;-78
2022/03/13 22:02:11;;;;;;;56.30;29.43;;;;;;;3.94;48.07;101579.81;3608811;79;98549;-78
2022/03/13 22:07:15;;;;;;;55.67;27.60;;;;;;;3.88;48.17;101581.61;3632190;79;98490;-78
2022/03/13 22:12:25;;;;;;;54.33;27.40;;;;;;;3.85;48.55;101591.19;3636171;79;98797;-78
2022/03/13 22:17:22;;;;;;;54.38;27.80;;;;;;;3.78;48.90;101585.33;3627411;79;99124;-79
2022/03/13 22:22:23;;;;;;;61.33;31.40;;;;;;;3.71;49.00;101581.42;3644445;78;98803;-78
2022/03/13 22:27:24;;;;;;;54.17;30.27;;;;;;;3.65;49.63;101582.64;3669091;78;99175;-77
2022/03/13 22:32:25;;;;;;;50.27;27.23;;;;;;;3.57;49.74;101575.16;3650656;79;31794;-80
2022/03/13 22:37:26;;;;;;;58.77;30.67;;;;;;;3.52;50.10;101576.08;3629430;79;98765;-78
2022/03/13 22:42:27;;;;;;;61.87;30.70;;;;;;;3.49;50.15;101575.88;3687697;79;98828;-78
2022/03/13 22:47:31;;;;;;;61.23;31.20;;;;;;;3.43;50.35;101582.50;3657849;79;98795;-78
2022/03/13 22:52:34;;;;;;;53.10;28.13;;;;;;;3.35;50.54;101579.95;3691449;78;98774;-78
2022/03/13 22:57:35;;;;;;;61.20;27.55;;;;;;;3.28;50.64;101587.69;3664804;78;98874;-78
2022/03/13 23:02:36;;;;;;;64.57;32.70;;;;;;;3.23;50.67;101591.06;3647197;79;31569;-78